Terminal Aerodrome Forecast
Issued by NWS

Home | Current Version | Previous Version | Text Only | Print | Product List | Glossary On
Versions: 1 2 3 4 5 6 7 8 9 10 11 12 13 14 15 16 17 18 19 20 21 22
000
FTUS45 KABQ 220500 RRA
TAFROW
TAF
KROW 220544Z 2206/2306 09003KT P6SM VCSH SCT025 BKN030 OVC045
      TEMPO 2206/2210 4SM -RA BR OVC018
     FM221200 10007KT P6SM OVC015
     FM221800 15009KT P6SM VCSH BKN025
     FM222100 14010KT P6SM VCTS OVC040CB
     FM230000 15009KT P6SM BKN050=

USA.gov is the U.S. government's official web portal to all federal, state and local government web resources and services.